Time;durP1;ratioP1;P1;durP2;ratioP2;P2;SDS_P1;SDS_P2;PMS_P1;PMS_P2;Temp;Humidity;BMP_temperature;BMP_pressure;BME280_temperature;BME280_humidity;BME280_pressure;Samples;Min_cycle;Max_cycle;Signal;HPM_P1;HPM_P2
2022/03/31 00:00:39;;;;;;;49.90;40.40;;;;;;;6.16;100.00;97252.55;105238;1271;75110;-73
2022/03/31 00:03:13;;;;;;;47.40;40.50;;;;;;;6.14;100.00;97252.83;105273;1271;69656;-73
2022/03/31 00:05:41;;;;;;;45.10;37.60;;;;;;;6.14;100.00;97247.94;105171;1271;74543;-73
2022/03/31 00:08:13;;;;;;;46.70;36.10;;;;;;;6.12;100.00;97247.16;105237;1271;61180;-75
2022/03/31 00:10:42;;;;;;;43.10;35.00;;;;;;;6.11;100.00;97244.10;105033;1271;61441;-72
2022/03/31 00:13:13;;;;;;;40.40;33.80;;;;;;;6.09;100.00;97245.65;105232;1271;74954;-74
2022/03/31 00:15:40;;;;;;;44.10;34.20;;;;;;;6.08;100.00;97245.19;105265;1271;69354;-73
2022/03/31 00:18:08;;;;;;;41.10;33.20;;;;;;;6.08;100.00;97243.84;105200;1270;74462;-73
2022/03/31 00:20:35;;;;;;;39.30;32.00;;;;;;;6.06;100.00;97243.99;104940;1273;61316;-73
2022/03/31 00:23:03;;;;;;;42.80;33.40;;;;;;;6.04;100.00;97241.96;105196;1271;62130;-73
2022/03/31 00:25:30;;;;;;;43.00;33.90;;;;;;;6.03;100.00;97242.09;105351;1271;75439;-72
2022/03/31 00:27:57;;;;;;;45.80;37.20;;;;;;;6.01;100.00;97247.34;105248;1271;69088;-74
2022/03/31 00:30:26;;;;;;;47.80;36.20;;;;;;;6.01;100.00;97251.38;105222;1271;74547;-73
2022/03/31 00:32:53;;;;;;;44.50;34.70;;;;;;;6.01;100.00;97256.36;105223;1271;61141;-73
2022/03/31 00:35:20;;;;;;;41.90;34.00;;;;;;;5.99;100.00;97252.41;105233;1270;61285;-72
2022/03/31 00:37:47;;;;;;;40.80;33.20;;;;;;;5.98;100.00;97251.83;105235;1271;76419;-72
2022/03/31 00:40:16;;;;;;;35.80;30.70;;;;;;;5.96;100.00;97251.26;105246;1271;70446;-74
2022/03/31 00:42:46;;;;;;;38.40;33.30;;;;;;;5.92;100.00;97245.52;105357;1271;74591;-73
2022/03/31 00:45:13;;;;;;;37.80;32.60;;;;;;;5.89;100.00;97249.30;105240;1272;61259;-73
2022/03/31 00:47:40;;;;;;;40.60;34.30;;;;;;;5.84;100.00;97249.14;105483;1271;61367;-72
2022/03/31 00:50:09;;;;;;;34.70;30.90;;;;;;;5.79;100.00;97252.02;105234;1271;75268;-71
2022/03/31 00:52:35;;;;;;;30.00;26.80;;;;;;;5.71;100.00;97250.84;105224;1271;69200;-72
2022/03/31 00:55:02;;;;;;;31.00;25.60;;;;;;;5.61;100.00;97248.90;105078;1272;256146;-72
2022/03/31 00:57:31;;;;;;;27.60;24.60;;;;;;;5.49;100.00;97250.88;105240;1271;61482;-71
2022/03/31 00:59:58;;;;;;;28.70;24.30;;;;;;;5.39;100.00;97255.32;105251;1270;61345;-72
2022/03/31 01:02:31;;;;;;;27.30;24.40;;;;;;;5.31;100.00;97253.10;105288;1271;76356;-73
2022/03/31 01:05:00;;;;;;;29.70;25.70;;;;;;;5.22;100.00;97253.95;105184;1271;70134;-72
2022/03/31 01:07:28;;;;;;;28.00;24.80;;;;;;;5.14;100.00;97261.75;105344;1271;74448;-73
2022/03/31 01:09:57;;;;;;;29.10;25.20;;;;;;;5.06;100.00;97262.23;105256;1270;61371;-73
2022/03/31 01:12:24;;;;;;;30.00;26.20;;;;;;;5.01;100.00;97266.48;105264;1271;61916;-73
2022/03/31 01:15:16;;;;;;;30.70;27.50;;;;;;;4.96;100.00;97266.72;105289;1271;74786;-73
2022/03/31 01:17:45;;;;;;;28.60;25.10;;;;;;;4.91;100.00;97261.96;105233;1271;70215;-73
2022/03/31 01:20:19;;;;;;;31.20;27.30;;;;;;;4.85;100.00;97261.67;105057;1272;74245;-72
2022/03/31 01:22:47;;;;;;;30.80;25.70;;;;;;;4.80;100.00;97264.69;105214;1271;61288;-73
2022/03/31 01:25:14;;;;;;;33.70;29.90;;;;;;;4.76;100.00;97269.90;105258;1269;62412;-73
2022/03/31 01:27:43;;;;;;;33.30;29.70;;;;;;;4.73;100.00;97266.79;105252;1268;75126;-73
2022/03/31 01:30:13;;;;;;;34.20;30.50;;;;;;;4.70;100.00;97269.94;105392;1271;69307;-72
2022/03/31 01:32:45;;;;;;;33.00;29.40;;;;;;;4.68;100.00;97264.99;105192;1271;72616;-72
2022/03/31 01:35:13;;;;;;;36.40;31.10;;;;;;;4.67;100.00;97271.60;105441;1270;61281;-73
2022/03/31 01:37:40;;;;;;;35.90;31.90;;;;;;;4.66;100.00;97273.60;105340;1271;61297;-74
2022/03/31 01:40:08;;;;;;;34.80;30.90;;;;;;;4.64;100.00;97272.54;105088;1271;75456;-73
2022/03/31 01:42:36;;;;;;;35.20;31.50;;;;;;;4.64;100.00;97276.59;105250;1268;69638;-74
2022/03/31 01:45:04;;;;;;;35.70;31.80;;;;;;;4.62;100.00;97268.09;105298;1271;73950;-73
2022/03/31 01:47:31;;;;;;;33.90;30.30;;;;;;;4.59;100.00;97272.52;105309;1268;61283;-73
2022/03/31 01:49:57;;;;;;;34.20;30.70;;;;;;;4.58;100.00;97274.18;105289;1268;61868;-74
2022/03/31 01:52:24;;;;;;;37.70;33.30;;;;;;;4.55;100.00;97273.84;105268;1268;75517;-73
2022/03/31 01:54:50;;;;;;;34.40;29.10;;;;;;;4.54;100.00;97279.53;105425;1268;69315;-73
2022/03/31 01:57:17;;;;;;;36.70;32.20;;;;;;;4.49;100.00;97282.58;105008;1269;61358;-74
2022/03/31 01:59:44;;;;;;;35.70;31.80;;;;;;;4.48;100.00;97286.48;105278;1268;61400;-73
2022/03/31 02:02:13;;;;;;;35.80;31.90;;;;;;;4.44;100.00;97288.48;105236;1271;61249;-73
2022/03/31 02:04:41;;;;;;;33.40;29.80;;;;;;;4.42;100.00;97288.30;105314;1268;76068;-73
2022/03/31 02:07:09;;;;;;;32.20;28.70;;;;;;;4.40;100.00;97290.02;105290;1268;70242;-72
2022/03/31 02:09:36;;;;;;;34.30;30.60;;;;;;;4.38;100.00;97289.64;105302;1268;73195;-72
2022/03/31 02:12:04;;;;;;;31.40;28.10;;;;;;;4.35;100.00;97293.69;105302;1268;61249;-73
2022/03/31 02:14:32;;;;;;;34.30;29.40;;;;;;;4.33;100.00;97294.20;105321;1268;61255;-73
2022/03/31 02:16:59;;;;;;;33.50;30.00;;;;;;;4.32;100.00;97293.91;105217;1268;76123;-73
2022/03/31 02:19:26;;;;;;;29.80;26.70;;;;;;;4.31;100.00;97300.66;105285;1268;70199;-72
2022/03/31 02:21:55;;;;;;;32.70;28.60;;;;;;;4.28;100.00;97297.34;105319;1268;72870;-73
2022/03/31 02:24:21;;;;;;;30.90;27.80;;;;;;;4.26;100.00;97292.91;105356;1268;61297;-73
2022/03/31 02:26:48;;;;;;;29.40;26.40;;;;;;;4.24;100.00;97293.42;105456;1268;61294;-73
2022/03/31 02:29:15;;;;;;;32.90;27.70;;;;;;;4.22;100.00;97292.67;105576;1268;74137;-72
2022/03/31 02:31:41;;;;;;;30.10;26.90;;;;;;;4.21;100.00;97293.59;105511;1268;69352;-73
2022/03/31 02:34:08;;;;;;;29.40;26.10;;;;;;;4.19;100.00;97294.95;105605;1268;71596;-72
2022/03/31 02:36:35;;;;;;;32.60;29.20;;;;;;;4.17;100.00;97294.95;106503;1268;61370;-72
2022/03/31 02:39:01;;;;;;;30.50;27.20;;;;;;;4.15;100.00;97292.27;106217;1268;61168;-73
2022/03/31 02:41:28;;;;;;;30.80;27.50;;;;;;;4.12;100.00;97290.34;106555;1268;75504;-73
2022/03/31 02:43:55;;;;;;;32.70;28.70;;;;;;;4.12;100.00;97292.65;106756;1268;70139;-74
2022/03/31 02:46:21;;;;;;;29.40;26.00;;;;;;;4.11;100.00;97297.82;105311;1268;73108;-73
2022/03/31 02:48:48;;;;;;;31.60;27.80;;;;;;;4.10;100.00;97295.45;105317;1268;61335;-73
2022/03/31 02:51:14;;;;;;;29.20;26.20;;;;;;;4.09;100.00;97298.33;105359;1268;62074;-73
2022/03/31 02:56:26;;;;;;;31.60;28.20;;;;;;;4.07;100.00;97299.81;105304;1268;69350;-73
2022/03/31 02:58:53;;;;;;;31.10;28.00;;;;;;;4.07;100.00;97296.84;105268;1268;73226;-72
2022/03/31 03:01:20;;;;;;;35.60;31.60;;;;;;;4.06;100.00;97299.19;105249;1268;61275;-73
2022/03/31 03:03:50;;;;;;;35.60;31.80;;;;;;;4.04;100.00;97304.61;105348;1268;61319;-72
2022/03/31 03:06:17;;;;;;;34.40;30.70;;;;;;;4.02;100.00;97308.79;105299;1268;76353;-72
2022/03/31 03:08:43;;;;;;;36.90;32.80;;;;;;;4.00;100.00;97308.91;105265;1271;70335;-73
2022/03/31 03:11:10;;;;;;;37.10;32.60;;;;;;;3.99;100.00;97307.78;105264;1268;73284;-73
2022/03/31 03:13:36;;;;;;;39.30;35.10;;;;;;;3.99;100.00;97307.95;105322;1268;61370;-74
2022/03/31 03:16:08;;;;;;;37.60;33.60;;;;;;;3.98;100.00;97309.04;105260;1268;61900;-71
2022/03/31 03:18:35;;;;;;;41.30;36.90;;;;;;;3.98;100.00;97311.31;105260;1268;76324;-73
2022/03/31 03:21:04;;;;;;;35.10;31.50;;;;;;;3.97;100.00;97307.70;105313;1268;70646;-72
2022/03/31 03:23:31;;;;;;;32.00;28.50;;;;;;;3.94;100.00;97309.34;105365;1268;74114;-72
2022/03/31 03:25:58;;;;;;;31.10;28.00;;;;;;;3.90;100.00;97311.86;105256;1268;61279;-73
2022/03/31 03:28:24;;;;;;;33.40;29.90;;;;;;;3.87;100.00;97310.86;105254;1268;61245;-72
2022/03/31 03:30:51;;;;;;;35.80;31.90;;;;;;;3.85;100.00;97315.90;105283;1268;76093;-72
2022/03/31 03:33:18;;;;;;;31.50;28.30;;;;;;;3.82;100.00;97314.14;105259;1268;69286;-73
2022/03/31 03:35:45;;;;;;;28.80;25.80;;;;;;;3.77;100.00;97318.71;105285;1268;73564;-72
2022/03/31 03:38:14;;;;;;;28.70;25.80;;;;;;;3.74;100.00;97322.42;105283;1268;61351;-73
2022/03/31 03:40:41;;;;;;;29.00;26.10;;;;;;;3.72;100.00;97326.61;105258;1268;60840;-72
2022/03/31 03:43:09;;;;;;;29.10;26.20;;;;;;;3.70;100.00;97321.24;105280;1268;76334;-73
2022/03/31 03:45:38;;;;;;;28.40;25.50;;;;;;;3.68;100.00;97315.05;104993;1269;69288;-73
2022/03/31 03:48:11;;;;;;;27.00;24.10;;;;;;;3.64;100.00;97314.98;105269;1268;73800;-73
2022/03/31 03:50:39;;;;;;;27.60;24.90;;;;;;;3.61;100.00;97316.76;105311;1268;61282;-73
2022/03/31 03:53:07;;;;;;;24.90;22.20;;;;;;;3.59;100.00;97320.60;105403;1268;61381;-74
2022/03/31 03:55:35;;;;;;;25.40;22.90;;;;;;;3.57;100.00;97327.98;105278;1268;75340;-72
2022/03/31 03:58:02;;;;;;;24.80;22.20;;;;;;;3.54;100.00;97329.87;105373;1268;70521;-74
2022/03/31 04:00:30;;;;;;;27.00;24.20;;;;;;;3.51;100.00;97332.49;105407;1268;74169;-73
2022/03/31 04:02:58;;;;;;;28.30;25.50;;;;;;;3.50;100.00;97334.85;105302;1268;61206;-72
2022/03/31 04:05:25;;;;;;;32.70;29.40;;;;;;;3.51;100.00;97336.41;105301;1268;61332;-73
2022/03/31 04:07:52;;;;;;;32.30;29.10;;;;;;;3.49;100.00;97335.42;105267;1268;76395;-74
2022/03/31 04:10:19;;;;;;;35.50;31.50;;;;;;;3.47;100.00;97334.03;105290;1268;70630;-72
2022/03/31 04:12:45;;;;;;;34.60;30.90;;;;;;;3.44;100.00;97339.30;105290;1268;74531;-73
2022/03/31 04:15:14;;;;;;;32.70;29.20;;;;;;;3.41;100.00;97337.75;105263;1268;61239;-72
2022/03/31 04:17:43;;;;;;;31.20;27.80;;;;;;;3.37;100.00;97341.00;105305;1268;61287;-73
2022/03/31 04:20:11;;;;;;;28.30;25.40;;;;;;;3.33;100.00;97341.05;105346;1267;74226;-72
2022/03/31 04:22:38;;;;;;;32.90;29.60;;;;;;;3.29;100.00;97342.72;105194;1271;69011;-72
2022/03/31 04:25:07;;;;;;;31.00;27.80;;;;;;;3.28;100.00;97343.88;105052;1268;72901;-74
2022/03/31 04:27:35;;;;;;;29.40;26.50;;;;;;;3.24;100.00;97349.34;105474;1267;61291;-73
2022/03/31 04:30:10;;;;;;;28.50;25.60;;;;;;;3.23;100.00;97349.05;105292;1267;62145;-72
2022/03/31 04:32:38;;;;;;;31.00;27.70;;;;;;;3.22;100.00;97348.48;105062;1270;75383;-73
2022/03/31 04:35:05;;;;;;;32.40;28.90;;;;;;;3.20;100.00;97342.96;105299;1268;69305;-73
2022/03/31 04:37:34;;;;;;;31.60;28.40;;;;;;;3.20;100.00;97346.27;105218;1271;73547;-72
2022/03/31 04:40:05;;;;;;;29.70;26.60;;;;;;;3.19;100.00;97347.75;105417;1268;61263;-73
2022/03/31 04:42:32;;;;;;;27.90;25.20;;;;;;;3.19;100.00;97356.38;105050;1268;61353;-72
2022/03/31 04:44:59;;;;;;;27.70;24.80;;;;;;;3.18;100.00;97359.56;105261;1268;76390;-73
2022/03/31 04:47:26;;;;;;;28.40;25.50;;;;;;;3.16;100.00;97359.51;105313;1268;69532;-72
2022/03/31 04:49:53;;;;;;;29.00;26.10;;;;;;;3.16;100.00;97355.32;105298;1268;73395;-73
2022/03/31 04:52:19;;;;;;;28.10;25.20;;;;;;;3.17;100.00;97350.70;105299;1268;61297;-72
2022/03/31 04:54:46;;;;;;;27.70;25.10;;;;;;;3.15;100.00;97351.39;105055;1268;62051;-73
2022/03/31 04:57:16;;;;;;;28.30;25.40;;;;;;;3.16;100.00;97352.89;105258;1268;76382;-73
2022/03/31 04:59:43;;;;;;;28.50;25.60;;;;;;;3.17;100.00;97360.88;105373;1267;68925;-72
2022/03/31 05:02:12;;;;;;;28.60;25.70;;;;;;;3.17;100.00;97360.70;105265;1271;74031;-73
2022/03/31 05:04:40;;;;;;;24.50;22.00;;;;;;;3.18;100.00;97364.35;105348;1268;61300;-72
2022/03/31 05:07:08;;;;;;;28.20;25.20;;;;;;;3.17;100.00;97363.48;105366;1268;62037;-75
2022/03/31 05:09:35;;;;;;;28.40;25.40;;;;;;;3.18;100.00;97363.77;105456;1270;76072;-72
2022/03/31 05:12:02;;;;;;;28.70;25.80;;;;;;;3.19;100.00;97362.84;105012;1268;69858;-72
2022/03/31 05:14:29;;;;;;;30.00;26.80;;;;;;;3.20;100.00;97363.48;104990;1268;72858;-73
2022/03/31 05:16:56;;;;;;;28.30;25.50;;;;;;;3.19;100.00;97370.41;105268;1268;61259;-73
2022/03/31 05:19:22;;;;;;;29.70;26.50;;;;;;;3.18;100.00;97366.08;105309;1268;62674;-73
2022/03/31 05:21:49;;;;;;;28.50;25.70;;;;;;;3.19;100.00;97371.48;105316;1268;76483;-73
2022/03/31 05:24:16;;;;;;;27.40;24.70;;;;;;;3.19;100.00;97370.26;105312;1268;70601;-73
2022/03/31 05:26:43;;;;;;;28.80;25.90;;;;;;;3.21;100.00;97377.14;105319;1268;73471;-72
2022/03/31 05:29:09;;;;;;;28.70;25.80;;;;;;;3.21;100.00;97379.07;105308;1268;61263;-72
2022/03/31 05:31:36;;;;;;;27.80;24.70;;;;;;;3.23;100.00;97383.13;105247;1268;61134;-73
2022/03/31 05:34:03;;;;;;;26.50;23.80;;;;;;;3.25;100.00;97383.34;105284;1268;76369;-73
2022/03/31 05:36:29;;;;;;;24.80;22.20;;;;;;;3.27;100.00;97387.63;105291;1268;68800;-72
2022/03/31 05:38:56;;;;;;;21.70;19.50;;;;;;;3.27;100.00;97387.09;105281;1268;73500;-73
2022/03/31 05:41:24;;;;;;;22.30;20.00;;;;;;;3.29;100.00;97390.61;105251;1268;61192;-74
2022/03/31 05:43:50;;;;;;;21.20;19.10;;;;;;;3.32;100.00;97391.34;105307;1268;61316;-73
2022/03/31 05:46:17;;;;;;;21.00;19.00;;;;;;;3.34;100.00;97395.76;105282;1268;74891;-74
2022/03/31 05:48:43;;;;;;;19.50;17.60;;;;;;;3.37;100.00;97396.63;105307;1268;68588;-72
2022/03/31 05:51:12;;;;;;;17.60;15.90;;;;;;;3.39;100.00;97400.88;105025;1268;73523;-72
2022/03/31 05:53:39;;;;;;;18.20;16.30;;;;;;;3.40;100.00;97394.32;105261;1267;61281;-72
2022/03/31 05:56:05;;;;;;;19.10;17.20;;;;;;;3.41;100.00;97394.83;105251;1268;61351;-73
2022/03/31 05:58:32;;;;;;;16.30;14.80;;;;;;;3.42;100.00;97393.67;105269;1268;75357;-73
2022/03/31 06:00:59;;;;;;;16.80;15.30;;;;;;;3.45;100.00;97391.56;105256;1268;69223;-72
2022/03/31 06:03:26;;;;;;;17.90;16.20;;;;;;;3.44;100.00;97387.78;105397;1268;74763;-72
2022/03/31 06:05:53;;;;;;;17.80;16.10;;;;;;;3.43;100.00;97393.07;105267;1268;61249;-74
2022/03/31 06:08:20;;;;;;;18.30;16.50;;;;;;;3.43;100.00;97392.38;105267;1268;61246;-72
2022/03/31 06:10:46;;;;;;;17.50;15.80;;;;;;;3.43;100.00;97395.40;105263;1268;74990;-73
2022/03/31 06:13:13;;;;;;;17.90;16.10;;;;;;;3.43;100.00;97391.15;105296;1268;69390;-72
2022/03/31 06:15:40;;;;;;;16.60;15.10;;;;;;;3.45;100.00;97389.11;105277;1268;73312;-73
2022/03/31 06:18:07;;;;;;;16.50;14.90;;;;;;;3.44;100.00;97385.79;105334;1268;61272;-73
2022/03/31 06:20:34;;;;;;;16.50;15.00;;;;;;;3.44;100.00;97389.85;105225;1268;61276;-73
2022/03/31 06:23:01;;;;;;;16.40;14.90;;;;;;;3.41;100.00;97388.27;105263;1268;76259;-73
2022/03/31 06:25:28;;;;;;;16.50;15.00;;;;;;;3.41;100.00;97395.29;105225;1268;69030;-73
2022/03/31 06:27:55;;;;;;;17.70;16.00;;;;;;;3.42;100.00;97393.00;105232;1268;72825;-73
2022/03/31 06:30:22;;;;;;;16.20;14.80;;;;;;;3.44;100.00;97396.52;105248;1268;61291;-73
2022/03/31 06:32:49;;;;;;;16.90;15.30;;;;;;;3.46;100.00;97404.46;105278;1268;62311;-72
2022/03/31 06:35:16;;;;;;;17.00;15.40;;;;;;;3.49;100.00;97405.54;105202;1268;76348;-73
2022/03/31 06:37:47;;;;;;;17.00;15.50;;;;;;;3.49;100.00;97411.87;105288;1268;69300;-72
2022/03/31 06:40:16;;;;;;;16.70;15.10;;;;;;;3.50;100.00;97408.80;105247;1268;72615;-73
2022/03/31 06:42:44;;;;;;;15.50;14.10;;;;;;;3.52;100.00;97415.70;105310;1268;61311;-73
2022/03/31 06:45:16;;;;;;;14.90;13.50;;;;;;;3.51;100.00;97413.45;105288;1268;61249;-72
2022/03/31 06:47:43;;;;;;;16.20;14.70;;;;;;;3.52;100.00;97414.47;105508;1268;74628;-73
2022/03/31 06:50:12;;;;;;;14.90;13.50;;;;;;;3.50;100.00;97414.55;105272;1268;70565;-74
2022/03/31 06:52:39;;;;;;;14.50;13.00;;;;;;;3.52;100.00;97415.66;105279;1268;74446;-71
2022/03/31 06:55:06;;;;;;;13.90;12.70;;;;;;;3.54;100.00;97412.92;105241;1268;61290;-72
2022/03/31 06:57:33;;;;;;;12.60;11.50;;;;;;;3.56;100.00;97410.86;105276;1268;62020;-72
2022/03/31 06:59:59;;;;;;;13.00;11.80;;;;;;;3.63;100.00;97413.23;105304;1268;75166;-73
2022/03/31 07:02:26;;;;;;;12.00;10.90;;;;;;;3.67;100.00;97416.10;105266;1268;70667;-73
2022/03/31 07:04:53;;;;;;;11.30;10.30;;;;;;;3.70;100.00;97417.52;105256;1267;73258;-73
2022/03/31 07:07:20;;;;;;;11.10;10.10;;;;;;;3.68;100.00;97418.52;105186;1268;61618;-73
2022/03/31 07:09:47;;;;;;;10.40;9.60;;;;;;;3.69;100.00;97425.14;105293;1268;61243;-73
2022/03/31 07:12:14;;;;;;;11.30;10.30;;;;;;;3.67;100.00;97428.10;105263;1268;76343;-73
2022/03/31 07:14:40;;;;;;;10.70;9.70;;;;;;;3.67;100.00;97429.65;105288;1268;70658;-72
2022/03/31 07:17:07;;;;;;;10.80;10.00;;;;;;;3.65;100.00;97431.88;105025;1268;74446;-73
2022/03/31 07:19:34;;;;;;;10.10;9.20;;;;;;;3.68;100.00;97429.42;105302;1268;61580;-73
2022/03/31 07:22:00;;;;;;;11.60;10.60;;;;;;;3.68;100.00;97426.45;105307;1268;61540;-73
2022/03/31 07:24:27;;;;;;;12.30;11.20;;;;;;;3.69;100.00;97427.44;105270;1268;75308;-72
2022/03/31 07:26:54;;;;;;;11.50;10.50;;;;;;;3.72;100.00;97427.08;105272;1268;70370;-73
2022/03/31 07:29:20;;;;;;;10.50;9.50;;;;;;;3.74;100.00;97429.95;105269;1268;74368;-73
2022/03/31 07:31:47;;;;;;;10.80;9.80;;;;;;;3.77;100.00;97427.43;105325;1268;61416;-73
2022/03/31 07:34:14;;;;;;;12.70;11.60;;;;;;;3.82;100.00;97430.84;105308;1268;61289;-73
2022/03/31 07:36:40;;;;;;;13.30;12.10;;;;;;;3.87;100.00;97425.20;105275;1268;76411;-73
2022/03/31 07:39:08;;;;;;;12.60;11.50;;;;;;;3.92;100.00;97425.20;105031;1268;69924;-73
2022/03/31 07:41:35;;;;;;;14.00;12.70;;;;;;;3.99;100.00;97424.95;105285;1268;74500;-72
2022/03/31 07:44:02;;;;;;;12.10;11.00;;;;;;;4.04;100.00;97429.33;105281;1268;61370;-74
2022/03/31 07:46:32;;;;;;;10.40;9.50;;;;;;;4.08;100.00;97429.30;105279;1268;62503;-73
2022/03/31 07:48:59;;;;;;;14.10;12.80;;;;;;;4.07;100.00;97430.73;105277;1268;76629;-74
2022/03/31 07:51:26;;;;;;;16.30;14.90;;;;;;;4.07;100.00;97428.33;105276;1268;69814;-72
2022/03/31 07:53:53;;;;;;;16.30;14.80;;;;;;;4.07;100.00;97430.73;105311;1268;72873;-74
2022/03/31 07:56:20;;;;;;;13.50;12.30;;;;;;;4.09;100.00;97428.84;105076;1268;61288;-73
2022/03/31 07:58:46;;;;;;;17.90;16.40;;;;;;;4.12;100.00;97429.74;105310;1268;61272;-71
2022/03/31 08:01:13;;;;;;;14.50;13.10;;;;;;;4.16;100.00;97431.05;105327;1268;74949;-72
2022/03/31 08:03:39;;;;;;;15.60;14.20;;;;;;;4.20;100.00;97431.30;105331;1268;70304;-74
2022/03/31 08:06:08;;;;;;;16.90;15.50;;;;;;;4.23;100.00;97427.58;105335;1268;74464;-73
2022/03/31 08:08:38;;;;;;;17.10;15.60;;;;;;;4.27;100.00;97433.83;105330;1268;61268;-73
2022/03/31 08:11:04;;;;;;;11.00;10.10;;;;;;;4.34;100.00;97433.54;105418;1268;60898;-73
2022/03/31 08:13:31;;;;;;;9.30;8.50;;;;;;;4.36;100.00;97433.36;105411;1268;76424;-73
2022/03/31 08:15:58;;;;;;;8.80;7.90;;;;;;;4.40;100.00;97436.83;105151;1268;69128;-72
2022/03/31 08:18:29;;;;;;;9.00;8.10;;;;;;;4.43;100.00;97435.06;105442;1268;72877;-73
2022/03/31 08:20:57;;;;;;;8.70;7.80;;;;;;;4.47;100.00;97433.73;105279;1268;61352;-74
2022/03/31 08:23:25;;;;;;;8.60;7.80;;;;;;;4.54;100.00;97441.71;105382;1268;61121;-73
2022/03/31 08:25:53;;;;;;;9.00;8.10;;;;;;;4.56;100.00;97438.75;105602;1268;74876;-72
2022/03/31 08:28:20;;;;;;;8.50;7.70;;;;;;;4.59;100.00;97440.52;106391;1268;69444;-72
2022/03/31 08:30:47;;;;;;;7.80;7.10;;;;;;;4.62;100.00;97442.94;106214;1267;73407;-71
2022/03/31 08:33:15;;;;;;;7.40;6.70;;;;;;;4.63;100.00;97440.91;106033;1268;61332;-72
2022/03/31 08:35:41;;;;;;;7.60;6.90;;;;;;;4.60;100.00;97443.89;105681;1268;61291;-74
2022/03/31 08:38:08;;;;;;;7.10;6.40;;;;;;;4.54;100.00;97438.00;105426;1268;74637;-73
2022/03/31 08:40:36;;;;;;;7.20;6.60;;;;;;;4.50;100.00;97443.74;105413;1268;69432;-72
2022/03/31 08:43:03;;;;;;;7.80;7.10;;;;;;;4.48;100.00;97433.30;105369;1268;73462;-72
2022/03/31 08:45:35;;;;;;;7.30;6.40;;;;;;;4.54;100.00;97436.08;105385;1268;61254;-73
2022/03/31 08:48:04;;;;;;;6.80;6.10;;;;;;;4.56;100.00;97433.11;105482;1268;62352;-72
2022/03/31 08:50:34;;;;;;;6.60;6.00;;;;;;;4.54;100.00;97432.02;105373;1268;76446;-71
2022/03/31 08:53:02;;;;;;;7.40;6.70;;;;;;;4.55;100.00;97429.29;105345;1268;70074;-73
2022/03/31 08:55:29;;;;;;;8.50;6.50;;;;;;;4.59;100.00;97423.39;105478;1267;73020;-74
2022/03/31 08:57:56;;;;;;;7.60;6.90;;;;;;;4.62;100.00;97421.98;105297;1268;61314;-73
2022/03/31 09:00:24;;;;;;;7.70;7.00;;;;;;;4.64;100.00;97421.11;105331;1268;61325;-72
2022/03/31 09:02:53;;;;;;;7.20;6.50;;;;;;;4.60;100.00;97418.58;105442;1268;76403;-72
2022/03/31 09:05:20;;;;;;;10.80;7.60;;;;;;;4.54;100.00;97422.15;105055;1268;70365;-72
2022/03/31 09:07:56;;;;;;;7.90;7.10;;;;;;;4.53;100.00;97429.80;105262;1268;73370;-72
2022/03/31 09:10:25;;;;;;;8.80;8.00;;;;;;;4.51;100.00;97429.95;105301;1268;61352;-73
2022/03/31 09:12:52;;;;;;;9.20;7.80;;;;;;;4.48;100.00;97435.77;105352;1268;61386;-72
2022/03/31 09:15:19;;;;;;;10.60;8.60;;;;;;;4.48;100.00;97432.21;105327;1268;74843;-72
2022/03/31 09:17:45;;;;;;;8.60;7.80;;;;;;;4.48;100.00;97436.68;105316;1268;68953;-72
2022/03/31 09:20:12;;;;;;;8.60;7.80;;;;;;;4.41;100.00;97438.36;105344;1266;72877;-73
2022/03/31 09:22:48;;;;;;;9.60;8.70;;;;;;;4.39;100.00;97443.76;105327;1268;61281;-72
2022/03/31 09:25:28;;;;;;;10.70;9.60;;;;;;;4.37;100.00;97450.58;105443;1268;61792;-73
2022/03/31 09:27:58;;;;;;;9.90;9.00;;;;;;;4.37;100.00;97450.02;105467;1267;75358;-72
2022/03/31 09:30:25;;;;;;;9.50;8.60;;;;;;;4.36;100.00;97450.77;105376;1268;70486;-73
2022/03/31 09:32:52;;;;;;;8.80;7.90;;;;;;;4.34;100.00;97448.65;105317;1268;74411;-73
2022/03/31 09:35:23;;;;;;;10.30;9.30;;;;;;;4.32;100.00;97451.58;105280;1268;61394;-73
2022/03/31 09:37:54;;;;;;;9.90;9.00;;;;;;;4.30;100.00;97448.05;105357;1268;62100;-71
2022/03/31 09:40:21;;;;;;;9.20;8.40;;;;;;;4.26;100.00;97449.19;105342;1268;76083;-73
2022/03/31 09:42:58;;;;;;;9.50;8.30;;;;;;;4.24;100.00;97442.98;105341;1268;70380;-73
2022/03/31 09:45:39;;;;;;;10.00;9.00;;;;;;;4.23;100.00;97441.81;105432;1268;74449;-72
2022/03/31 09:48:18;;;;;;;10.00;9.00;;;;;;;4.22;100.00;97434.19;105360;1268;61291;-73
2022/03/31 09:50:46;;;;;;;11.60;10.30;;;;;;;4.21;100.00;97432.84;105105;1268;62334;-72
2022/03/31 09:53:13;;;;;;;11.80;10.40;;;;;;;4.24;100.00;97429.85;105365;1268;75306;-71
2022/03/31 09:55:42;;;;;;;12.70;9.30;;;;;;;4.24;100.00;97430.15;105343;1268;69381;-72
2022/03/31 09:58:12;;;;;;;11.40;10.30;;;;;;;4.23;100.00;97435.30;105528;1267;73424;-73
2022/03/31 10:00:40;;;;;;;9.90;9.10;;;;;;;4.21;100.00;97441.27;105446;1268;61313;-74
2022/03/31 10:03:06;;;;;;;12.90;11.70;;;;;;;4.17;100.00;97437.48;105346;1268;61174;-73
2022/03/31 10:05:33;;;;;;;11.60;10.50;;;;;;;4.16;100.00;97439.32;105294;1268;74664;-72
2022/03/31 10:08:02;;;;;;;10.70;9.60;;;;;;;4.15;100.00;97434.80;105315;1268;69357;-72
2022/03/31 10:10:28;;;;;;;10.30;9.50;;;;;;;4.11;100.00;97431.91;105340;1268;74295;-73
2022/03/31 10:13:05;;;;;;;10.40;9.40;;;;;;;4.08;100.00;97433.35;105307;1268;61186;-73
2022/03/31 10:15:35;;;;;;;11.70;10.70;;;;;;;4.09;100.00;97432.22;105315;1268;61397;-73
2022/03/31 10:18:04;;;;;;;12.70;10.70;;;;;;;4.10;100.00;97433.05;105476;1267;76463;-73
2022/03/31 10:20:30;;;;;;;11.30;10.20;;;;;;;4.08;100.00;97428.05;105354;1268;71434;-72
2022/03/31 10:25:49;;;;;;;11.70;10.60;;;;;;;4.06;100.00;97424.17;105345;1268;61283;-71
2022/03/31 10:28:19;;;;;;;13.20;11.90;;;;;;;4.04;100.00;97419.89;105522;1268;61545;-74
2022/03/31 10:31:01;;;;;;;13.30;12.00;;;;;;;4.04;100.00;97429.02;105402;1268;76442;-74
2022/03/31 10:33:42;;;;;;;13.40;12.10;;;;;;;4.03;100.00;97422.78;105378;1268;69172;-73
2022/03/31 10:36:12;;;;;;;15.60;14.00;;;;;;;4.03;100.00;97417.50;105347;1268;74872;-72
2022/03/31 10:38:59;;;;;;;13.30;12.00;;;;;;;4.05;100.00;97423.00;105299;1267;61261;-73
2022/03/31 10:41:31;;;;;;;14.50;13.00;;;;;;;4.02;100.00;97423.53;105354;1268;61136;-72
2022/03/31 10:43:58;;;;;;;13.20;12.00;;;;;;;3.98;100.00;97422.73;105365;1268;75418;-73
2022/03/31 10:46:28;;;;;;;14.20;12.80;;;;;;;3.96;100.00;97420.23;105490;1271;69427;-72
2022/03/31 10:48:59;;;;;;;16.90;15.20;;;;;;;3.95;100.00;97420.96;105341;1267;73911;-72
2022/03/31 10:51:41;;;;;;;17.50;15.70;;;;;;;3.97;100.00;97420.00;104911;1271;61173;-73
2022/03/31 10:54:12;;;;;;;14.90;13.30;;;;;;;3.99;100.00;97417.38;105499;1268;61294;-73
2022/03/31 10:56:40;;;;;;;14.90;13.40;;;;;;;3.97;100.00;97410.65;105516;1268;76329;-73
2022/03/31 10:59:07;;;;;;;16.10;14.50;;;;;;;3.95;100.00;97410.64;105399;1268;70745;-74
2022/03/31 11:01:36;;;;;;;17.60;15.70;;;;;;;3.93;100.00;97413.56;105298;1268;73445;-73
2022/03/31 11:04:08;;;;;;;17.60;15.60;;;;;;;3.93;100.00;97415.70;105048;1268;61176;-73
2022/03/31 11:06:45;;;;;;;19.60;17.60;;;;;;;3.94;100.00;97415.43;105248;1268;61266;-71
2022/03/31 11:09:27;;;;;;;18.90;17.10;;;;;;;3.94;100.00;97420.20;105342;1268;76688;-73
2022/03/31 11:11:55;;;;;;;19.50;17.60;;;;;;;3.91;100.00;97429.31;105411;1269;69743;-73
2022/03/31 11:14:23;;;;;;;19.60;17.60;;;;;;;3.88;100.00;97427.73;105392;1268;71685;-73
2022/03/31 11:16:50;;;;;;;27.30;24.40;;;;;;;3.86;100.00;97427.02;105215;1268;61396;-72
2022/03/31 11:19:20;;;;;;;28.10;25.20;;;;;;;3.86;100.00;97429.86;105315;1268;61930;-73
2022/03/31 11:21:47;;;;;;;35.40;31.70;;;;;;;3.84;100.00;97429.79;105418;1268;75693;-73